Main page
METAR-TAF:

METAR-TAF

Airports :

RAF Woodvale

Woodvale, England

latitude: 53-34-54N, longitude: 003-03-20W, elevation: 11 m

Current weather observation

The report was made 2 hours and 56 minutes ago, at 13:50 UTC
Wind 17 kt from the Northeast
Temperature 7°C
Humidity 70%
Pressure 1012 hPa
Visibility 10 km or more
Broken clouds at a height of 2300 ft

METAR: EGOW 201350Z 05017KT 9999 BKN023 07/02 Q1012 WHT

Time: 16:46 (16:46 UTC)

Forecast

The report was made 2 hours and 55 minutes ago, at 13:51 UTC
Forecast valid from 20 at 15 UTC to 20 at 18 UTC
Wind 13 kt from the East/Northeast
Visibility 10 km or more
Broken clouds at a height of 2200 ft
Probability 40% :
Temporary
from 20 at 15 UTC to 20 at 16 UTC
Wind 15 kt from the East/Northeast with gusts up to 25 kt
Probability 30% :
Temporary
from 20 at 15 UTC to 20 at 18 UTC
Visibility: 7000 m
rain showers

TAF: EGOW 201351Z 2015/2018 06013KT 9999 BKN022 PROB40 TEMPO 2015/2016 07015G25KT PROB30 TEMPO 2015/2018 7000 SHRA

Weather observations and forecasts of more than 4000 airports (METAR and TAF reports).

The available stations are represented by yellow and red dots on the map.

Hover mouse over dot to see the name of the station.

Then click to see weather observations and forecasts.

To change the map : click on the green buttons with a black cross to zoom in, on the green button with a dash to zoom out, or on the green arrows for adjacent maps.


METAR-TAF: